Time;durP1;ratioP1;P1;durP2;ratioP2;P2;SDS_P1;SDS_P2;PMS_P1;PMS_P2;Temp;Humidity;BMP_temperature;BMP_pressure;BME280_temperature;BME280_humidity;BME280_pressure;Samples;Min_cycle;Max_cycle;Signal;HPM_P1;HPM_P2
2021/05/21 00:02:05;;;;;;;;;;;12.80;93.60;;;;;;10493930;28;19924;-72
2021/05/21 00:07:06;;;;;;;;;;;12.70;94.30;;;;;;10514735;28;19932;-72
2021/05/21 00:12:08;;;;;;;;;;;12.70;95.70;;;;;;10524741;28;19924;-72
2021/05/21 00:17:10;;;;;;;;;;;12.60;97.10;;;;;;10501530;28;20020;-72
2021/05/21 00:22:12;;;;;;;;;;;12.60;97.40;;;;;;10524376;28;20027;-72
2021/05/21 00:27:14;;;;;;;;;;;12.70;97.90;;;;;;10501195;28;20270;-72
2021/05/21 00:32:16;;;;;;;;;;;12.80;98.80;;;;;;10530721;28;20026;-72
2021/05/21 00:37:17;;;;;;;;;;;12.80;99.20;;;;;;10495546;28;20304;-72
2021/05/21 00:42:19;;;;;;;;;;;12.80;99.70;;;;;;10528462;28;20019;-72
2021/05/21 00:47:21;;;;;;;;;;;12.60;99.90;;;;;;10505543;28;19924;-72
2021/05/21 00:52:23;;;;;;;;;;;12.60;99.90;;;;;;10523307;28;19924;-72
2021/05/21 00:57:26;;;;;;;;;;;12.50;99.90;;;;;;10499307;28;20259;-73
2021/05/21 01:02:28;;;;;;;;;;;12.40;99.90;;;;;;10497019;28;19981;-73
2021/05/21 01:07:30;;;;;;;;;;;12.30;99.90;;;;;;10494471;28;19924;-73
2021/05/21 01:12:32;;;;;;;;;;;12.20;99.90;;;;;;10487668;28;20031;-72
2021/05/21 01:17:33;;;;;;;;;;;12.00;99.90;;;;;;10496508;28;19934;-72
2021/05/21 01:22:35;;;;;;;;;;;11.80;99.90;;;;;;10522154;28;20415;-72
2021/05/21 01:27:37;;;;;;;;;;;11.80;99.90;;;;;;10491918;28;19928;-72
2021/05/21 01:32:40;;;;;;;;;;;11.90;99.90;;;;;;10488945;28;20014;-71
2021/05/21 01:37:43;;;;;;;;;;;11.80;99.90;;;;;;10494778;28;19978;-72
2021/05/21 01:42:45;;;;;;;;;;;11.60;99.90;;;;;;10520521;28;20019;-71
2021/05/21 01:47:47;;;;;;;;;;;11.70;99.90;;;;;;10499340;28;19955;-72
2021/05/21 01:52:49;;;;;;;;;;;11.60;99.90;;;;;;10493581;28;20376;-72
2021/05/21 01:57:51;;;;;;;;;;;11.40;99.90;;;;;;10488283;28;20392;-71
2021/05/21 02:02:54;;;;;;;;;;;11.30;99.90;;;;;;10495583;28;20015;-71
2021/05/21 02:07:55;;;;;;;;;;;11.10;99.90;;;;;;10494788;28;20023;-72
2021/05/21 02:12:57;;;;;;;;;;;10.90;99.90;;;;;;10498398;28;19925;-72
2021/05/21 02:17:59;;;;;;;;;;;10.90;99.90;;;;;;10503408;28;20018;-72
2021/05/21 02:23:02;;;;;;;;;;;10.90;99.90;;;;;;10520042;28;20432;-72
2021/05/21 02:28:04;;;;;;;;;;;10.90;99.90;;;;;;10515255;28;19935;-72
2021/05/21 02:33:06;;;;;;;;;;;10.80;99.90;;;;;;10526501;28;20357;-72
2021/05/21 02:38:08;;;;;;;;;;;10.80;99.90;;;;;;10513883;28;20015;-71
2021/05/21 02:43:09;;;;;;;;;;;10.70;99.90;;;;;;10514378;28;20011;-72
2021/05/21 02:48:11;;;;;;;;;;;10.50;99.90;;;;;;10521065;28;20026;-72
2021/05/21 02:53:13;;;;;;;;;;;10.50;99.90;;;;;;10506404;28;20417;-72
2021/05/21 02:58:18;;;;;;;;;;;10.60;99.90;;;;;;10519831;28;19931;-72
2021/05/21 03:03:20;;;;;;;;;;;10.70;99.90;;;;;;10519153;28;19924;-72
2021/05/21 03:08:22;;;;;;;;;;;10.70;99.90;;;;;;10498684;28;20435;-72
2021/05/21 03:13:24;;;;;;;;;;;10.80;99.90;;;;;;10512741;28;19935;-72
2021/05/21 03:18:26;;;;;;;;;;;11.00;99.90;;;;;;10518275;28;19969;-72
2021/05/21 03:23:28;;;;;;;;;;;10.90;99.90;;;;;;10508002;28;19955;-72
2021/05/21 03:28:30;;;;;;;;;;;10.70;99.90;;;;;;10519754;28;20014;-72
2021/05/21 03:33:31;;;;;;;;;;;10.80;99.90;;;;;;10507941;28;20027;-73
2021/05/21 03:38:33;;;;;;;;;;;11.00;99.90;;;;;;10494221;28;20011;-72
2021/05/21 03:43:35;;;;;;;;;;;11.10;99.90;;;;;;10496366;28;20285;-72
2021/05/21 03:48:37;;;;;;;;;;;11.10;99.90;;;;;;10498560;28;20347;-72
2021/05/21 03:53:39;;;;;;;;;;;10.90;99.90;;;;;;10499258;28;20324;-72
2021/05/21 03:58:40;;;;;;;;;;;10.90;99.90;;;;;;10520833;28;19928;-72
2021/05/21 04:03:42;;;;;;;;;;;10.80;99.90;;;;;;10526047;28;19972;-72
2021/05/21 04:08:44;;;;;;;;;;;10.80;99.90;;;;;;10506943;28;20020;-73
2021/05/21 04:13:46;;;;;;;;;;;10.80;99.90;;;;;;10497554;28;19987;-72
2021/05/21 04:18:48;;;;;;;;;;;11.00;99.90;;;;;;10518827;28;19979;-73
2021/05/21 04:23:50;;;;;;;;;;;11.20;99.90;;;;;;10506908;28;20008;-73
2021/05/21 04:28:51;;;;;;;;;;;11.20;99.90;;;;;;10519242;28;19947;-73
2021/05/21 04:33:53;;;;;;;;;;;11.20;99.90;;;;;;10508620;28;20007;-73
2021/05/21 04:38:55;;;;;;;;;;;11.40;99.90;;;;;;10518573;28;19963;-73
2021/05/21 04:43:57;;;;;;;;;;;11.50;99.90;;;;;;10522585;28;20007;-73
2021/05/21 04:48:59;;;;;;;;;;;11.50;99.90;;;;;;10494408;28;20007;-73
2021/05/21 04:54:04;;;;;;;;;;;11.60;99.90;;;;;;10492916;28;19978;-73
2021/05/21 04:59:06;;;;;;;;;;;11.80;99.90;;;;;;10521479;28;20023;-73
2021/05/21 05:04:07;;;;;;;;;;;11.90;99.90;;;;;;10511464;28;20023;-73
2021/05/21 05:09:10;;;;;;;;;;;12.00;99.90;;;;;;10490858;28;20289;-73
2021/05/21 05:14:12;;;;;;;;;;;12.00;99.90;;;;;;10490977;28;20392;-73
2021/05/21 05:19:14;;;;;;;;;;;12.10;99.90;;;;;;10491317;28;19931;-73
2021/05/21 05:24:17;;;;;;;;;;;12.20;99.90;;;;;;10505666;28;19974;-73
2021/05/21 05:29:19;;;;;;;;;;;12.20;99.90;;;;;;10511100;28;20038;-72
2021/05/21 05:34:21;;;;;;;;;;;12.50;99.90;;;;;;10513768;28;19954;-73
2021/05/21 05:39:22;;;;;;;;;;;12.60;99.90;;;;;;10490557;28;20022;-73
2021/05/21 05:44:24;;;;;;;;;;;12.50;99.90;;;;;;10489313;28;20028;-72
2021/05/21 05:49:26;;;;;;;;;;;12.60;99.90;;;;;;10503954;28;19978;-72
2021/05/21 05:54:28;;;;;;;;;;;12.80;99.90;;;;;;10515062;28;20015;-72
2021/05/21 05:59:30;;;;;;;;;;;12.90;99.90;;;;;;10516492;28;19963;-72
2021/05/21 06:04:32;;;;;;;;;;;12.80;99.90;;;;;;10490213;28;20027;-72
2021/05/21 06:09:34;;;;;;;;;;;12.90;99.90;;;;;;10500683;28;20034;-72
2021/05/21 06:14:36;;;;;;;;;;;13.30;99.90;;;;;;10501397;28;20339;-72
2021/05/21 06:19:38;;;;;;;;;;;13.70;99.90;;;;;;10504405;28;19975;-72
2021/05/21 06:24:42;;;;;;;;;;;13.90;99.90;;;;;;10516647;28;19931;-73
2021/05/21 06:29:44;;;;;;;;;;;14.30;99.90;;;;;;10491424;28;20023;-73
2021/05/21 06:34:46;;;;;;;;;;;14.30;99.90;;;;;;10484179;28;19968;-73
2021/05/21 06:39:57;;;;;;;;;;;14.40;99.90;;;;;;10477158;28;20381;-74
2021/05/21 06:44:59;;;;;;;;;;;14.60;99.90;;;;;;10489945;28;19931;-66
2021/05/21 06:50:01;;;;;;;;;;;14.80;99.90;;;;;;10487701;28;20020;-66
2021/05/21 06:55:03;;;;;;;;;;;14.70;99.80;;;;;;10506334;28;20018;-66
2021/05/21 07:00:05;;;;;;;;;;;14.70;99.60;;;;;;10527073;28;20027;-66
2021/05/21 07:05:08;;;;;;;;;;;14.90;99.90;;;;;;10506541;28;20031;-66
2021/05/21 07:10:10;;;;;;;;;;;14.80;98.60;;;;;;10487017;28;20350;-66
2021/05/21 07:15:12;;;;;;;;;;;15.10;97.80;;;;;;10506900;28;20019;-66
2021/05/21 07:20:14;;;;;;;;;;;15.00;96.40;;;;;;10525508;28;19998;-66
2021/05/21 07:25:16;;;;;;;;;;;15.10;95.30;;;;;;10503544;28;20371;-66
2021/05/21 07:30:19;;;;;;;;;;;14.90;95.80;;;;;;10500374;28;20038;-65
2021/05/21 07:35:21;;;;;;;;;;;15.10;95.80;;;;;;10487800;28;19930;-66
2021/05/21 07:40:24;;;;;;;;;;;15.40;95.00;;;;;;10500243;28;19935;-66
2021/05/21 07:45:25;;;;;;;;;;;15.80;94.10;;;;;;10491870;28;19977;-66
2021/05/21 07:50:27;;;;;;;;;;;16.00;93.30;;;;;;10504792;28;20006;-66
2021/05/21 07:55:29;;;;;;;;;;;16.40;84.20;;;;;;10516069;28;20280;-65
2021/05/21 08:00:31;;;;;;;;;;;16.30;81.00;;;;;;10518546;28;20051;-66
2021/05/21 08:05:33;;;;;;;;;;;16.30;75.30;;;;;;10518565;28;20385;-66
2021/05/21 08:10:55;;;;;;;;;;;16.50;74.20;;;;;;10519193;28;20542;-66
2021/05/21 08:15:57;;;;;;;;;;;16.30;70.90;;;;;;10503887;28;20382;-66
2021/05/21 08:20:59;;;;;;;;;;;16.50;70.80;;;;;;10493223;28;19925;-66
2021/05/21 08:26:00;;;;;;;;;;;17.10;68.10;;;;;;10510983;28;19925;-66
2021/05/21 08:31:04;;;;;;;;;;;16.60;66.00;;;;;;10508150;28;19964;-66
2021/05/21 08:36:07;;;;;;;;;;;17.40;64.10;;;;;;10518207;28;20383;-65
2021/05/21 08:41:12;;;;;;;;;;;18.20;63.40;;;;;;10506290;28;20014;-63
2021/05/21 08:46:18;;;;;;;;;;;17.80;60.40;;;;;;10488655;28;19931;-64
2021/05/21 08:51:20;;;;;;;;;;;17.90;59.60;;;;;;10491435;28;20297;-63
2021/05/21 08:56:26;;;;;;;;;;;16.90;59.70;;;;;;10395727;28;19931;-63
2021/05/21 09:01:28;;;;;;;;;;;17.40;59.20;;;;;;10407720;28;19987;-63
2021/05/21 09:06:42;;;;;;;;;;;18.30;56.10;;;;;;10408065;28;19925;-63
2021/05/21 09:11:46;;;;;;;;;;;18.80;53.80;;;;;;10406380;28;20370;-64
2021/05/21 09:16:49;;;;;;;;;;;19.10;51.10;;;;;;10407262;28;20015;-63
2021/05/21 09:21:52;;;;;;;;;;;18.80;50.90;;;;;;10407940;28;20035;-64
2021/05/21 09:26:55;;;;;;;;;;;19.00;49.80;;;;;;10401948;28;20032;-63
2021/05/21 09:31:57;;;;;;;;;;;18.70;49.30;;;;;;10414288;28;19971;-63
2021/05/21 09:37:00;;;;;;;;;;;18.10;50.10;;;;;;10405476;28;19932;-63
2021/05/21 09:42:10;;;;;;;;;;;17.50;51.00;;;;;;10408604;28;19925;-63
2021/05/21 09:47:12;;;;;;;;;;;17.80;50.50;;;;;;10419196;28;20015;-63
2021/05/21 09:52:17;;;;;;;;;;;18.00;50.10;;;;;;10420427;28;20027;-63
2021/05/21 09:57:32;;;;;;;;;;;17.40;52.20;;;;;;10488635;28;20373;-63
2021/05/21 10:02:34;;;;;;;;;;;18.20;51.20;;;;;;10489396;28;19924;-63
2021/05/21 10:07:36;;;;;;;;;;;18.40;49.90;;;;;;10488456;28;19932;-63
2021/05/21 10:12:40;;;;;;;;;;;18.00;49.00;;;;;;10492828;28;20392;-64
2021/05/21 10:17:43;;;;;;;;;;;18.20;49.60;;;;;;10516680;28;20448;-64
2021/05/21 10:22:45;;;;;;;;;;;17.90;50.10;;;;;;10524191;28;19936;-63
2021/05/21 10:27:49;;;;;;;;;;;17.80;50.00;;;;;;10488825;28;19931;-64
2021/05/21 10:33:10;;;;;;;;;;;18.70;49.50;;;;;;10492353;28;20349;-64
2021/05/21 10:38:25;;;;;;;;;;;18.90;48.10;;;;;;10514943;28;20015;-63
2021/05/21 10:43:27;;;;;;;;;;;18.80;47.40;;;;;;10507411;28;20023;-63
2021/05/21 10:48:29;;;;;;;;;;;18.60;47.50;;;;;;10491833;28;19986;-63
2021/05/21 10:53:31;;;;;;;;;;;18.20;47.80;;;;;;10487449;28;19928;-63
2021/05/21 10:58:38;;;;;;;;;;;18.40;48.30;;;;;;10488032;28;19924;-63
2021/05/21 11:04:00;;;;;;;;;;;18.70;47.90;;;;;;10486324;28;20440;-63
2021/05/21 11:09:12;;;;;;;;;;;18.70;48.70;;;;;;10505200;28;19978;-63
2021/05/21 11:14:19;;;;;;;;;;;19.00;49.20;;;;;;10490611;28;20323;-64
2021/05/21 11:19:21;;;;;;;;;;;18.90;49.20;;;;;;10484928;28;20031;-64
2021/05/21 11:24:46;;;;;;;;;;;18.80;49.00;;;;;;10499597;28;19979;-63
2021/05/21 11:29:49;;;;;;;;;;;18.90;47.70;;;;;;10502653;28;20291;-63
2021/05/21 11:34:51;;;;;;;;;;;18.60;48.90;;;;;;10525225;28;20355;-63
2021/05/21 11:39:54;;;;;;;;;;;18.50;49.30;;;;;;10525582;28;20334;-63
2021/05/21 11:45:00;;;;;;;;;;;18.60;49.40;;;;;;10512248;28;19982;-64
2021/05/21 11:50:03;;;;;;;;;;;18.90;49.20;;;;;;10508454;28;19998;-64
2021/05/21 11:55:05;;;;;;;;;;;19.10;48.50;;;;;;10499476;28;20019;-63
2021/05/21 12:00:07;;;;;;;;;;;19.30;49.00;;;;;;10509086;28;20380;-63
2021/05/21 12:05:10;;;;;;;;;;;19.00;50.40;;;;;;10522913;28;20004;-64
2021/05/21 12:10:12;;;;;;;;;;;18.80;49.80;;;;;;10524240;28;19927;-64
2021/05/21 12:15:15;;;;;;;;;;;18.50;47.90;;;;;;10521979;28;19928;-64
2021/05/21 12:20:21;;;;;;;;;;;18.70;48.60;;;;;;10516913;28;19935;-63
2021/05/21 12:25:23;;;;;;;;;;;19.50;46.50;;;;;;10496478;28;19946;-63
2021/05/21 12:30:25;;;;;;;;;;;19.90;44.40;;;;;;10508144;28;19970;-64
2021/05/21 12:35:37;;;;;;;;;;;19.90;45.30;;;;;;10511633;28;20461;-64
2021/05/21 12:40:52;;;;;;;;;;;19.40;42.50;;;;;;10518975;28;19986;-63
2021/05/21 12:45:57;;;;;;;;;;;19.60;43.60;;;;;;10511992;28;20291;-63
2021/05/21 12:51:16;;;;;;;;;;;19.50;42.40;;;;;;10527108;28;19934;-63
2021/05/21 12:56:31;;;;;;;;;;;19.60;43.40;;;;;;10513678;28;19928;-64
2021/05/21 13:01:33;;;;;;;;;;;19.60;41.70;;;;;;10515626;28;20022;-63
2021/05/21 13:06:35;;;;;;;;;;;19.60;41.90;;;;;;10499123;28;19928;-63
2021/05/21 13:11:56;;;;;;;;;;;19.40;42.00;;;;;;10497102;28;20369;-64
2021/05/21 13:16:59;;;;;;;;;;;19.10;42.50;;;;;;10509760;28;19929;-64
2021/05/21 13:22:20;;;;;;;;;;;19.30;42.30;;;;;;10492082;28;19974;-63
2021/05/21 13:27:23;;;;;;;;;;;19.30;41.90;;;;;;10495778;28;20380;-64
2021/05/21 13:32:26;;;;;;;;;;;19.00;42.00;;;;;;10525416;28;20298;-63
2021/05/21 13:37:28;;;;;;;;;;;18.90;42.00;;;;;;10513329;28;20022;-63
2021/05/21 13:42:31;;;;;;;;;;;19.00;42.10;;;;;;10503336;28;20532;-63
2021/05/21 13:47:33;;;;;;;;;;;19.10;42.00;;;;;;10521186;28;19924;-63
2021/05/21 13:52:35;;;;;;;;;;;18.70;41.90;;;;;;10489786;28;20285;-63
2021/05/21 13:57:37;;;;;;;;;;;18.50;43.20;;;;;;10508052;28;19928;-63
2021/05/21 14:02:39;;;;;;;;;;;18.70;43.10;;;;;;10500113;28;19979;-63
2021/05/21 14:07:41;;;;;;;;;;;18.80;43.10;;;;;;10521864;28;20402;-64
2021/05/21 14:12:45;;;;;;;;;;;18.90;43.50;;;;;;10495237;28;19990;-64
2021/05/21 14:17:47;;;;;;;;;;;19.20;43.10;;;;;;10516732;28;20020;-64
2021/05/21 14:22:50;;;;;;;;;;;19.20;42.80;;;;;;10523113;28;19935;-64
2021/05/21 14:27:52;;;;;;;;;;;19.00;42.20;;;;;;10483273;28;20019;-63
2021/05/21 14:32:58;;;;;;;;;;;18.80;42.20;;;;;;10505969;28;19928;-64
2021/05/21 14:37:59;;;;;;;;;;;18.70;43.30;;;;;;10520286;28;19964;-64
2021/05/21 14:43:02;;;;;;;;;;;18.60;43.20;;;;;;10508854;28;20002;-64
2021/05/21 14:48:04;;;;;;;;;;;19.00;42.70;;;;;;10489665;28;20324;-63
2021/05/21 14:53:06;;;;;;;;;;;18.70;42.70;;;;;;10485847;28;20532;-63
2021/05/21 14:58:08;;;;;;;;;;;18.70;43.80;;;;;;10504619;28;20019;-63
2021/05/21 15:03:12;;;;;;;;;;;18.80;43.20;;;;;;10524280;28;20288;-63
2021/05/21 15:08:14;;;;;;;;;;;18.80;44.00;;;;;;10532993;28;20363;-63
2021/05/21 15:13:21;;;;;;;;;;;18.90;42.70;;;;;;10529538;28;20028;-63
2021/05/21 15:28:48;;;;;;;;;;;19.00;42.40;;;;;;10511359;28;19938;-63
2021/05/21 15:33:51;;;;;;;;;;;18.80;42.50;;;;;;10524596;28;19985;-63
2021/05/21 15:38:53;;;;;;;;;;;18.70;42.60;;;;;;10531921;28;19932;-63
2021/05/21 15:59:43;;;;;;;;;;;18.50;42.70;;;;;;10525950;28;19924;-63
2021/05/21 16:04:45;;;;;;;;;;;18.80;42.00;;;;;;10534308;28;20011;-63
2021/05/21 16:09:48;;;;;;;;;;;18.80;41.40;;;;;;10525228;28;20010;-63
2021/05/21 16:14:50;;;;;;;;;;;18.80;41.60;;;;;;10510940;28;20006;-63
2021/05/21 16:19:52;;;;;;;;;;;19.10;42.20;;;;;;10521279;28;19924;-63
2021/05/21 16:24:54;;;;;;;;;;;18.40;42.90;;;;;;10528071;28;19971;-63
2021/05/21 16:29:56;;;;;;;;;;;18.30;43.20;;;;;;10487081;28;20440;-63
2021/05/21 16:34:58;;;;;;;;;;;18.20;43.00;;;;;;10477067;28;19928;-63
2021/05/21 16:39:59;;;;;;;;;;;17.90;43.80;;;;;;10501406;28;19931;-63
2021/05/21 16:45:03;;;;;;;;;;;17.90;44.30;;;;;;10490964;28;20398;-63
2021/05/21 16:50:05;;;;;;;;;;;17.80;45.10;;;;;;10514953;28;19928;-63
2021/05/21 16:55:07;;;;;;;;;;;17.90;45.10;;;;;;10513040;28;19979;-63
2021/05/21 17:00:10;;;;;;;;;;;17.70;45.40;;;;;;10524614;28;20277;-63
2021/05/21 17:05:14;;;;;;;;;;;17.40;45.80;;;;;;10507485;28;19925;-63
2021/05/21 17:10:17;;;;;;;;;;;17.30;46.60;;;;;;10493222;28;19928;-63
2021/05/21 17:47:11;;;;;;;;;;;16.20;48.90;;;;;;10527576;28;20069;-63
2021/05/21 18:14:33;;;;;;;;;;;16.10;48.70;;;;;;10504214;28;20384;-63
2021/05/21 19:06:52;;;;;;;;;;;15.00;50.90;;;;;;10500116;28;20392;-66
2021/05/21 19:17:01;;;;;;;;;;;14.70;51.60;;;;;;10493405;28;19925;-67
2021/05/21 19:22:03;;;;;;;;;;;14.50;52.60;;;;;;10517234;28;20019;-68
2021/05/21 19:27:05;;;;;;;;;;;14.50;52.90;;;;;;10507553;28;19935;-68
2021/05/21 19:42:57;;;;;;;;;;;13.90;54.90;;;;;;10499871;28;19931;-67
2021/05/21 19:58:57;;;;;;;;;;;13.60;56.80;;;;;;10515067;28;20020;-68
2021/05/21 20:04:11;;;;;;;;;;;13.50;56.80;;;;;;10518561;28;19928;-67
2021/05/21 20:14:18;;;;;;;;;;;13.20;58.90;;;;;;10494022;28;19928;-67
2021/05/21 20:19:20;;;;;;;;;;;13.10;58.80;;;;;;10508058;28;19964;-66
2021/05/21 20:24:24;;;;;;;;;;;12.90;59.00;;;;;;10504792;28;19935;-66
2021/05/21 20:30:03;;;;;;;;;;;12.60;61.70;;;;;;10498830;28;20268;-67
2021/05/21 20:35:44;;;;;;;;;;;12.70;61.60;;;;;;10499437;28;19925;-67
2021/05/21 21:01:47;;;;;;;;;;;13.20;65.30;;;;;;10524942;28;20011;-66
2021/05/21 21:06:57;;;;;;;;;;;13.00;69.30;;;;;;10502872;28;19970;-66
2021/05/21 21:22:39;;;;;;;;;;;12.50;99.90;;;;;;10490405;28;19970;-66
2021/05/21 21:54:15;;;;;;;;;;;10.70;99.90;;;;;;10514830;28;20019;-66
2021/05/21 22:25:45;;;;;;;;;;;10.40;99.90;;;;;;10477856;28;20453;-66
2021/05/21 22:30:46;;;;;;;;;;;10.40;99.90;;;;;;10500129;28;20062;-66
2021/05/21 22:35:48;;;;;;;;;;;10.40;99.90;;;;;;10518218;28;20019;-67
2021/05/21 22:40:50;;;;;;;;;;;10.50;99.90;;;;;;10493121;28;20015;-66
2021/05/21 22:45:52;;;;;;;;;;;10.50;99.90;;;;;;10498541;28;20003;-66
2021/05/21 22:50:54;;;;;;;;;;;10.30;99.90;;;;;;10525393;28;19924;-66
2021/05/21 22:55:58;;;;;;;;;;;10.40;99.90;;;;;;10499483;28;20362;-67
2021/05/21 23:01:00;;;;;;;;;;;10.40;99.90;;;;;;10520008;28;20019;-66
2021/05/21 23:06:02;;;;;;;;;;;10.50;99.90;;;;;;10498323;28;19928;-66
2021/05/21 23:11:04;;;;;;;;;;;10.40;99.90;;;;;;10511559;28;19924;-66
2021/05/21 23:16:06;;;;;;;;;;;10.40;99.90;;;;;;10504473;28;19931;-66
2021/05/21 23:21:08;;;;;;;;;;;10.40;99.90;;;;;;10510702;28;20303;-67
2021/05/21 23:26:10;;;;;;;;;;;10.40;99.90;;;;;;10500219;28;20417;-66
2021/05/21 23:31:12;;;;;;;;;;;10.30;99.90;;;;;;10502460;28;19971;-66
2021/05/21 23:36:14;;;;;;;;;;;10.30;99.90;;;;;;10499424;28;20386;-67
2021/05/21 23:41:15;;;;;;;;;;;10.20;99.90;;;;;;10504020;28;20162;-67
2021/05/21 23:46:17;;;;;;;;;;;10.00;99.90;;;;;;10517392;28;19990;-67
2021/05/21 23:51:19;;;;;;;;;;;10.00;99.90;;;;;;10505156;28;19928;-66
2021/05/21 23:56:21;;;;;;;;;;;10.00;99.90;;;;;;10512485;28;20461;-66
